createdAt,value
2018-11-10T00:01:29.899Z,31.07
2018-11-10T00:03:58.070Z,31.57
2018-11-10T00:06:26.283Z,31.63
2018-11-10T00:08:54.455Z,30.90
2018-11-10T00:11:22.547Z,30.47
2018-11-10T00:13:50.690Z,33.07
2018-11-10T00:16:18.823Z,31.00
2018-11-10T00:18:46.982Z,32.97
2018-11-10T00:21:15.097Z,32.43
2018-11-10T00:23:43.238Z,31.43
2018-11-10T00:26:11.390Z,31.23
2018-11-10T00:28:39.514Z,32.23
2018-11-10T00:31:07.638Z,31.60
2018-11-10T00:33:35.773Z,31.43
2018-11-10T00:36:03.947Z,32.73
2018-11-10T00:38:32.112Z,32.13
2018-11-10T00:41:00.235Z,30.73
2018-11-10T00:43:28.355Z,30.77
2018-11-10T00:45:56.483Z,31.60
2018-11-10T00:48:24.619Z,32.23
2018-11-10T00:50:52.738Z,32.43
2018-11-10T00:53:20.956Z,31.50
2018-11-10T00:55:49.117Z,34.70
2018-11-10T00:58:17.266Z,32.37
2018-11-10T01:00:45.382Z,33.10
2018-11-10T01:03:13.522Z,31.53
2018-11-10T01:05:41.679Z,30.87
2018-11-10T01:08:09.874Z,31.07
2018-11-10T01:10:37.994Z,32.50
2018-11-10T01:13:06.283Z,30.63
2018-11-10T01:15:34.450Z,33.57
2018-11-10T01:18:02.582Z,30.70
2018-11-10T01:20:30.711Z,31.57
2018-11-10T01:22:58.823Z,34.00
2018-11-10T01:25:26.967Z,31.97
2018-11-10T01:27:55.083Z,28.80
2018-11-10T01:30:23.161Z,29.47
2018-11-10T01:32:51.279Z,28.90
2018-11-10T01:35:19.406Z,29.73
2018-11-10T01:37:47.555Z,29.03
2018-11-10T01:40:15.673Z,27.97
2018-11-10T01:42:44.195Z,28.47
2018-11-10T01:45:14.343Z,28.13
2018-11-10T01:47:43.122Z,26.80
2018-11-10T01:50:11.811Z,27.97
2018-11-10T01:52:40.394Z,25.73
2018-11-10T01:55:09.288Z,26.57
2018-11-10T01:57:37.427Z,23.90
2018-11-10T02:00:09.594Z,25.13
2018-11-10T02:02:37.691Z,25.27
2018-11-10T02:05:06.070Z,22.67
2018-11-10T02:07:34.173Z,23.50
2018-11-10T02:12:35.603Z,23.80
2018-11-10T02:15:03.767Z,22.73
2018-11-10T02:17:32.050Z,22.87
2018-11-10T02:20:00.162Z,22.40
2018-11-10T02:22:28.265Z,22.37
2018-11-10T02:24:56.384Z,23.50
2018-11-10T02:27:24.937Z,22.80
2018-11-10T02:29:54.438Z,23.00
2018-11-10T02:32:22.578Z,22.27
2018-11-10T02:34:51.500Z,20.73
2018-11-10T02:37:19.596Z,21.30
2018-11-10T02:39:47.706Z,22.53
2018-11-10T02:42:15.830Z,20.53
2018-11-10T02:44:43.943Z,20.87
2018-11-10T02:47:12.043Z,20.17
2018-11-10T02:49:40.162Z,20.87
2018-11-10T02:52:08.258Z,22.47
2018-11-10T02:54:36.375Z,20.37
2018-11-10T02:57:04.731Z,20.33
2018-11-10T02:59:32.838Z,19.83
2018-11-10T03:02:00.983Z,19.37
2018-11-10T03:04:29.120Z,19.90
2018-11-10T03:06:57.230Z,20.17
2018-11-10T03:09:25.555Z,20.27
2018-11-10T03:11:53.686Z,20.07
2018-11-10T03:14:21.821Z,20.43
2018-11-10T03:16:50.042Z,21.80
2018-11-10T03:19:18.247Z,21.27
2018-11-10T03:21:46.413Z,20.23
2018-11-10T03:24:14.574Z,21.53
2018-11-10T03:26:42.727Z,20.27
2018-11-10T03:29:10.851Z,19.87
2018-11-10T03:31:38.997Z,20.27
2018-11-10T03:34:07.203Z,21.23
2018-11-10T03:36:35.319Z,19.10
2018-11-10T03:39:03.755Z,19.57
2018-11-10T03:41:31.875Z,20.77
2018-11-10T03:44:00.011Z,20.73
2018-11-10T03:46:28.159Z,19.73
2018-11-10T03:48:56.357Z,20.70
2018-11-10T03:51:24.414Z,22.17
2018-11-10T03:53:52.554Z,19.70
2018-11-10T03:56:20.694Z,21.77
2018-11-10T03:58:48.821Z,22.57
2018-11-10T04:01:16.994Z,21.40
2018-11-10T04:03:45.126Z,24.03
2018-11-10T04:06:13.238Z,22.90
2018-11-10T04:08:41.370Z,22.83
2018-11-10T04:11:09.514Z,23.17
2018-11-10T04:13:37.644Z,23.53
2018-11-10T04:16:05.822Z,21.50
2018-11-10T04:18:33.965Z,22.50
2018-11-10T04:21:02.111Z,23.83
2018-11-10T04:23:30.226Z,23.47
2018-11-10T04:25:58.347Z,23.67
2018-11-10T04:28:26.479Z,23.27
2018-11-10T04:30:54.574Z,24.40
2018-11-10T04:33:22.723Z,21.77
2018-11-10T04:35:50.858Z,21.97
2018-11-10T04:38:18.933Z,23.93
2018-11-10T04:40:47.031Z,23.50
2018-11-10T04:43:15.147Z,21.70
2018-11-10T04:45:43.249Z,22.13
2018-11-10T04:48:11.358Z,22.73
2018-11-10T04:50:39.458Z,22.80
2018-11-10T04:53:07.563Z,23.53
2018-11-10T04:55:35.690Z,22.83
2018-11-10T04:58:03.783Z,22.50
2018-11-10T05:00:31.885Z,21.93
2018-11-10T05:03:00.129Z,19.90
2018-11-10T05:05:28.329Z,21.20
2018-11-10T05:07:56.438Z,21.60
2018-11-10T05:10:24.550Z,21.67
2018-11-10T05:12:52.647Z,20.87
2018-11-10T05:15:20.776Z,21.00
2018-11-10T05:17:48.871Z,21.43
2018-11-10T05:20:16.998Z,21.70
2018-11-10T05:22:45.105Z,22.67
2018-11-10T05:25:13.230Z,20.90
2018-11-10T05:27:41.507Z,20.77
2018-11-10T05:30:10.021Z,21.30
2018-11-10T05:32:38.221Z,19.00
2018-11-10T05:35:06.791Z,20.93
2018-11-10T05:37:35.735Z,22.30
2018-11-10T05:40:04.171Z,21.13
2018-11-10T05:42:32.268Z,21.83
2018-11-10T05:45:00.380Z,23.40
2018-11-10T05:47:28.492Z,20.87
2018-11-10T05:49:56.586Z,20.97
2018-11-10T05:52:24.702Z,19.43
2018-11-10T05:54:52.886Z,18.40
2018-11-10T05:57:21.026Z,18.10
2018-11-10T05:59:49.040Z,18.63
2018-11-10T06:02:17.143Z,18.83
2018-11-10T06:04:45.294Z,18.90
2018-11-10T06:07:13.419Z,18.70
2018-11-10T06:09:41.561Z,20.17
2018-11-10T06:12:09.658Z,18.17
2018-11-10T06:14:37.783Z,18.73
2018-11-10T06:17:06.430Z,19.63
2018-11-10T06:19:34.562Z,19.17
2018-11-10T06:22:02.735Z,19.10
2018-11-10T06:24:30.853Z,18.70
2018-11-10T06:26:59.028Z,18.00
2018-11-10T06:29:27.167Z,17.80
2018-11-10T06:31:55.293Z,17.70
2018-11-10T06:34:23.433Z,16.73
2018-11-10T06:36:51.588Z,16.93
2018-11-10T06:39:19.728Z,18.33
2018-11-10T06:41:47.922Z,16.20
2018-11-10T06:44:16.060Z,15.90
2018-11-10T06:46:44.191Z,17.70
2018-11-10T06:49:12.331Z,16.20
2018-11-10T06:51:40.481Z,15.50
2018-11-10T06:54:08.607Z,16.27
2018-11-10T06:56:36.756Z,16.47
2018-11-10T06:59:05.518Z,14.60
2018-11-10T07:01:33.699Z,16.60
2018-11-10T07:04:02.098Z,15.63
2018-11-10T07:06:30.430Z,16.50
2018-11-10T07:08:58.617Z,16.03
2018-11-10T07:11:26.811Z,16.57
2018-11-10T07:13:54.983Z,16.63
2018-11-10T07:16:23.102Z,16.83
2018-11-10T07:18:51.241Z,15.77
2018-11-10T07:21:19.400Z,16.20
2018-11-10T07:23:47.522Z,15.67
2018-11-10T07:26:15.658Z,15.60
2018-11-10T07:28:43.786Z,14.83
2018-11-10T07:31:11.899Z,15.33
2018-11-10T07:33:40.116Z,16.70
2018-11-10T07:36:08.186Z,16.03
2018-11-10T07:38:36.338Z,17.37
2018-11-10T07:41:05.187Z,17.60
2018-11-10T07:43:33.283Z,15.73
2018-11-10T07:46:01.382Z,18.17
2018-11-10T07:48:29.499Z,17.90
2018-11-10T07:50:57.598Z,18.60
2018-11-10T07:53:25.702Z,18.17
2018-11-10T07:55:53.832Z,18.07
2018-11-10T07:58:21.934Z,17.73
2018-11-10T08:00:50.027Z,18.77
2018-11-10T08:03:18.144Z,19.50
2018-11-10T08:05:46.243Z,18.67
2018-11-10T08:08:14.353Z,18.47
2018-11-10T08:10:42.513Z,20.33
2018-11-10T08:13:10.622Z,20.20
2018-11-10T08:15:38.730Z,22.43
2018-11-10T08:18:06.867Z,20.43
2018-11-10T08:20:35.030Z,23.73
2018-11-10T08:23:03.239Z,25.33
2018-11-10T08:25:31.368Z,23.80
2018-11-10T08:27:59.502Z,21.80
2018-11-10T08:30:27.626Z,19.90
2018-11-10T08:32:55.744Z,21.77
2018-11-10T08:35:23.890Z,21.90
2018-11-10T08:37:52.010Z,24.10
2018-11-10T08:40:20.141Z,22.20
2018-11-10T08:42:48.283Z,23.30
2018-11-10T08:45:16.601Z,23.23
2018-11-10T08:47:45.045Z,23.30
2018-11-10T08:50:14.386Z,26.00
2018-11-10T08:52:42.871Z,26.17
2018-11-10T08:55:11.934Z,23.80
2018-11-10T08:57:40.502Z,28.50
2018-11-10T09:00:09.454Z,25.17
2018-11-10T09:02:37.702Z,24.63
2018-11-10T09:05:07.046Z,26.13
2018-11-10T09:07:35.176Z,25.97
2018-11-10T09:10:03.322Z,25.73
2018-11-10T09:12:31.444Z,27.20
2018-11-10T09:14:59.610Z,27.00
2018-11-10T09:17:27.746Z,26.07
2018-11-10T09:19:55.887Z,26.60
2018-11-10T09:22:23.988Z,25.87
2018-11-10T09:24:52.091Z,27.47
2018-11-10T09:27:20.190Z,25.93
2018-11-10T09:29:48.305Z,28.27
2018-11-10T09:32:16.422Z,26.80
2018-11-10T09:34:44.555Z,27.77
2018-11-10T09:37:12.657Z,27.33
2018-11-10T09:39:40.747Z,29.07
2018-11-10T09:42:08.990Z,27.47
2018-11-10T09:44:36.976Z,28.17
2018-11-10T09:47:05.734Z,28.50
2018-11-10T09:49:33.846Z,29.83
2018-11-10T09:52:01.988Z,29.13
2018-11-10T09:54:30.103Z,27.90
2018-11-10T09:56:58.214Z,31.07
2018-11-10T09:59:26.319Z,25.93
2018-11-10T10:01:54.513Z,28.47
2018-11-10T10:04:22.545Z,28.20
2018-11-10T10:06:50.654Z,26.47
2018-11-10T10:09:18.781Z,29.23
2018-11-10T10:11:46.907Z,26.57
2018-11-10T10:14:14.999Z,26.53
2018-11-10T10:16:43.157Z,26.23
2018-11-10T10:19:11.239Z,24.23
2018-11-10T10:21:39.390Z,27.10
2018-11-10T10:24:07.918Z,27.00
2018-11-10T10:26:36.036Z,27.47
2018-11-10T10:29:04.302Z,26.80
2018-11-10T10:31:32.398Z,23.63
2018-11-10T10:34:00.625Z,23.87
2018-11-10T10:36:28.707Z,26.60
2018-11-10T10:38:56.831Z,24.30
2018-11-10T10:41:24.968Z,22.63
2018-11-10T10:43:53.106Z,21.07
2018-11-10T10:46:21.230Z,22.00
2018-11-10T10:48:49.481Z,23.20
2018-11-10T10:51:17.526Z,24.90
2018-11-10T10:53:45.657Z,23.23
2018-11-10T10:56:13.831Z,22.27
2018-11-10T10:58:41.922Z,20.23
2018-11-10T11:01:15.302Z,20.13
2018-11-10T11:03:48.911Z,20.27
2018-11-10T11:06:17.032Z,19.47
2018-11-10T11:08:45.187Z,18.50
2018-11-10T11:11:13.330Z,20.70
2018-11-10T11:13:41.455Z,20.87
2018-11-10T11:16:09.581Z,20.00
2018-11-10T11:18:37.710Z,20.30
2018-11-10T11:21:05.835Z,20.50
2018-11-10T11:23:33.931Z,21.17
2018-11-10T11:26:02.044Z,21.13
2018-11-10T11:28:30.231Z,21.87
2018-11-10T11:30:58.416Z,23.03
2018-11-10T11:33:26.475Z,19.00
2018-11-10T11:35:54.595Z,21.93
2018-11-10T11:38:22.705Z,21.13
2018-11-10T11:40:50.823Z,20.10
2018-11-10T11:43:18.936Z,18.47
2018-11-10T11:45:47.051Z,19.17
2018-11-10T11:48:15.151Z,21.60
2018-11-10T11:50:43.267Z,19.92
2018-11-10T11:53:11.366Z,19.07
2018-11-10T11:55:39.474Z,19.87
2018-11-10T11:58:07.707Z,20.70
2018-11-10T12:00:35.737Z,19.37
2018-11-10T12:03:03.855Z,17.80
2018-11-10T12:05:31.983Z,16.27
2018-11-10T12:08:00.108Z,16.60
2018-11-10T12:10:28.254Z,16.60
2018-11-10T12:12:56.416Z,14.70
2018-11-10T12:15:24.618Z,14.70
2018-11-10T12:17:52.699Z,14.00
2018-11-10T12:20:20.815Z,13.87
2018-11-10T12:22:48.926Z,13.20
2018-11-10T12:25:17.142Z,13.17
2018-11-10T12:27:45.255Z,11.63
2018-11-10T12:30:13.475Z,12.13
2018-11-10T12:32:41.728Z,11.93
2018-11-10T12:35:10.984Z,11.50
2018-11-10T12:37:39.105Z,11.30
2018-11-10T12:40:08.835Z,11.83
2018-11-10T12:42:37.139Z,10.50
2018-11-10T12:45:06.458Z,11.53
2018-11-10T12:47:34.862Z,10.10
2018-11-10T12:50:02.966Z,9.70
2018-11-10T12:52:31.070Z,9.60
2018-11-10T12:54:59.196Z,9.43
2018-11-10T12:57:27.317Z,8.67
2018-11-10T12:59:55.422Z,8.73
2018-11-10T13:02:23.522Z,8.80
2018-11-10T13:04:51.707Z,9.17
2018-11-10T13:07:19.890Z,8.93
2018-11-10T13:09:47.949Z,9.57
2018-11-10T13:12:16.065Z,9.10
2018-11-10T13:14:44.234Z,9.27
2018-11-10T13:17:12.395Z,9.53
2018-11-10T13:19:40.499Z,8.60
2018-11-10T13:22:08.638Z,8.55
2018-11-10T13:24:37.212Z,8.83
2018-11-10T13:27:07.468Z,8.55
2018-11-10T13:29:35.653Z,9.17
2018-11-10T13:32:03.804Z,8.70
2018-11-10T13:34:31.920Z,8.97
2018-11-10T13:37:00.095Z,10.15
2018-11-10T13:39:28.279Z,8.57
2018-11-10T13:42:59.576Z,8.63
2018-11-10T13:45:27.698Z,36.80
2018-11-10T13:47:55.855Z,10.03
2018-11-10T13:50:24.027Z,10.43
2018-11-10T13:52:52.589Z,9.50
2018-11-10T13:55:20.302Z,9.65
2018-11-10T13:57:48.453Z,9.08
2018-11-10T14:00:18.055Z,8.15
2018-11-10T14:02:46.206Z,9.13
2018-11-10T14:05:14.755Z,9.47
2018-11-10T14:07:42.874Z,11.78
2018-11-10T14:10:15.020Z,9.87
2018-11-10T14:12:43.917Z,9.40
2018-11-10T14:15:12.175Z,10.23
2018-11-10T14:17:41.446Z,10.82
2018-11-10T14:20:11.866Z,9.17
2018-11-10T14:22:40.027Z,11.03
2018-11-10T14:25:10.110Z,10.13
2018-11-10T14:27:39.034Z,10.45
2018-11-10T14:30:09.170Z,11.43
2018-11-10T14:32:37.358Z,11.83
2018-11-10T14:35:05.905Z,11.03
2018-11-10T14:37:34.085Z,11.45
2018-11-10T14:40:02.383Z,12.05
2018-11-10T14:42:30.605Z,11.93
2018-11-10T14:44:58.778Z,12.20
2018-11-10T14:47:26.930Z,13.13
2018-11-10T14:49:55.083Z,13.17
2018-11-10T14:52:23.235Z,11.53
2018-11-10T14:54:51.334Z,14.40
2018-11-10T14:57:19.555Z,13.93
2018-11-10T14:59:47.754Z,13.07
2018-11-10T15:02:15.852Z,12.23
2018-11-10T15:04:44.047Z,13.35
2018-11-10T15:07:12.360Z,14.47
2018-11-10T15:09:40.520Z,15.77
2018-11-10T15:12:08.680Z,14.47
2018-11-10T15:14:36.815Z,15.33
2018-11-10T15:17:05.134Z,13.90
2018-11-10T15:19:33.336Z,19.17
2018-11-10T15:22:01.473Z,14.33
2018-11-10T15:24:29.776Z,14.67
2018-11-10T15:26:57.894Z,14.73
2018-11-10T15:29:26.079Z,13.97
2018-11-10T15:31:54.304Z,14.00
2018-11-10T15:34:22.493Z,11.83
2018-11-10T15:36:50.686Z,13.27
2018-11-10T15:39:18.818Z,12.87
2018-11-10T15:41:46.940Z,13.30
2018-11-10T15:44:15.095Z,14.00
2018-11-10T15:46:43.189Z,12.17
2018-11-10T15:49:11.343Z,13.57
2018-11-10T15:51:39.436Z,13.30
2018-11-10T15:54:07.540Z,13.13
2018-11-10T15:56:36.006Z,14.57
2018-11-10T15:59:04.118Z,13.57
2018-11-10T16:01:32.317Z,14.90
2018-11-10T16:04:00.438Z,14.13
2018-11-10T16:06:28.546Z,15.77
2018-11-10T16:08:56.686Z,15.50
2018-11-10T16:11:24.844Z,15.83
2018-11-10T16:13:52.984Z,15.30
2018-11-10T16:16:21.115Z,17.27
2018-11-10T16:18:49.270Z,17.00
2018-11-10T16:21:17.390Z,16.87
2018-11-10T16:23:45.551Z,23.20
2018-11-10T16:26:13.702Z,30.70
2018-11-10T16:28:41.937Z,31.47
2018-11-10T16:31:09.966Z,35.13
2018-11-10T16:33:38.220Z,32.60
2018-11-10T16:36:06.346Z,31.07
2018-11-10T16:38:34.494Z,24.90
2018-11-10T16:41:02.636Z,22.90
2018-11-10T16:43:30.737Z,21.37
2018-11-10T16:45:58.906Z,15.03
2018-11-10T16:48:27.093Z,15.47
2018-11-10T16:50:55.206Z,14.67
2018-11-10T16:53:23.391Z,16.90
2018-11-10T16:55:51.542Z,15.23
2018-11-10T16:58:19.675Z,13.40
2018-11-10T17:00:47.814Z,12.65
2018-11-10T17:03:15.922Z,12.50
2018-11-10T17:05:44.063Z,12.83
2018-11-10T17:08:12.166Z,12.37
2018-11-10T17:10:40.275Z,12.40
2018-11-10T17:13:08.419Z,12.17
2018-11-10T17:15:36.648Z,11.60
2018-11-10T17:18:04.763Z,11.97
2018-11-10T17:20:32.910Z,11.30
2018-11-10T17:23:01.083Z,12.80
2018-11-10T17:25:29.210Z,12.00
2018-11-10T17:27:57.348Z,12.40
2018-11-10T17:30:25.589Z,12.03
2018-11-10T17:32:53.635Z,12.17
2018-11-10T17:35:21.786Z,10.20
2018-11-10T17:37:49.985Z,10.87
2018-11-10T17:40:18.185Z,9.93
2018-11-10T17:42:46.278Z,10.00
2018-11-10T17:45:16.763Z,10.17
2018-11-10T17:47:44.958Z,11.97
2018-11-10T17:50:14.154Z,10.80
2018-11-10T17:52:42.370Z,11.93
2018-11-10T17:55:12.164Z,11.90
2018-11-10T17:57:40.669Z,11.35
2018-11-10T18:00:08.754Z,11.20
2018-11-10T18:02:36.922Z,10.60
2018-11-10T18:05:06.464Z,10.13
2018-11-10T18:07:34.582Z,10.13
2018-11-10T18:10:02.775Z,10.63
2018-11-10T18:12:30.886Z,10.03
2018-11-10T18:14:59.045Z,9.40
2018-11-10T18:17:27.153Z,8.87
2018-11-10T18:19:55.285Z,10.27
2018-11-10T18:22:23.394Z,10.10
2018-11-10T18:24:51.559Z,7.83
2018-11-10T18:27:19.815Z,9.30
2018-11-10T18:29:47.950Z,8.77
2018-11-10T18:32:16.141Z,9.13
2018-11-10T18:34:44.238Z,7.87
2018-11-10T18:37:12.403Z,7.90
2018-11-10T18:39:40.570Z,7.97
2018-11-10T18:42:08.712Z,7.70
2018-11-10T18:44:36.870Z,8.00
2018-11-10T18:47:05.187Z,8.00
2018-11-10T18:49:33.306Z,7.93
2018-11-10T18:52:01.451Z,7.43
2018-11-10T18:54:29.633Z,7.73
2018-11-10T18:56:57.889Z,7.47
2018-11-10T18:59:25.967Z,7.20
2018-11-10T19:01:54.391Z,8.13
2018-11-10T19:04:22.567Z,7.90
2018-11-10T19:06:50.956Z,8.53
2018-11-10T19:09:19.074Z,8.37
2018-11-10T19:11:47.293Z,9.37
2018-11-10T19:14:15.438Z,9.93
2018-11-10T19:16:43.581Z,8.13
2018-11-10T19:19:11.726Z,8.70
2018-11-10T19:21:39.842Z,8.17
2018-11-10T19:24:08.043Z,8.90
2018-11-10T19:26:36.271Z,8.83
2018-11-10T19:29:04.399Z,7.67
2018-11-10T19:31:32.528Z,8.15
2018-11-10T19:34:00.630Z,8.75
2018-11-10T19:36:28.737Z,8.67
2018-11-10T19:38:56.891Z,9.10
2018-11-10T19:41:25.094Z,10.77
2018-11-10T19:43:53.224Z,8.53
2018-11-10T19:46:21.453Z,9.68
2018-11-10T19:48:49.582Z,9.87
2018-11-10T19:51:17.862Z,10.20
2018-11-10T19:53:45.904Z,12.03
2018-11-10T19:56:14.070Z,10.32
2018-11-10T19:58:42.184Z,11.93
2018-11-10T20:01:10.949Z,12.58
2018-11-10T20:03:39.307Z,10.80
2018-11-10T20:06:07.426Z,12.98
2018-11-10T20:08:35.575Z,11.43
2018-11-10T20:11:03.820Z,11.30
2018-11-10T20:13:32.007Z,9.90
2018-11-10T20:16:00.121Z,27.40
2018-11-10T20:18:28.279Z,38.57
2018-11-10T20:20:56.434Z,13.13
2018-11-10T20:23:24.614Z,10.43
2018-11-10T20:25:52.747Z,9.43
2018-11-10T20:28:20.920Z,8.77
2018-11-10T20:30:49.046Z,9.23
2018-11-10T20:33:17.176Z,8.47
2018-11-10T20:35:45.330Z,8.60
2018-11-10T20:38:13.455Z,7.80
2018-11-10T20:40:41.602Z,8.43
2018-11-10T20:43:09.814Z,8.30
2018-11-10T20:45:37.958Z,8.33
2018-11-10T20:48:06.123Z,10.20
2018-11-10T20:50:34.270Z,7.63
2018-11-10T20:53:02.398Z,7.40
2018-11-10T20:55:30.540Z,8.10
2018-11-10T20:57:58.685Z,8.43
2018-11-10T21:00:26.829Z,8.13
2018-11-10T21:02:54.947Z,6.70
2018-11-10T21:05:23.114Z,7.27
2018-11-10T21:07:51.243Z,9.23
2018-11-10T21:10:20.398Z,7.90
2018-11-10T21:12:49.548Z,8.33
2018-11-10T21:15:18.375Z,7.63
2018-11-10T21:17:46.833Z,9.13
2018-11-10T21:20:15.096Z,6.63
2018-11-10T21:22:43.430Z,7.13
2018-11-10T21:25:13.223Z,6.20
2018-11-10T21:27:41.703Z,6.30
2018-11-10T21:30:11.449Z,5.80
2018-11-10T21:32:39.468Z,7.23
2018-11-10T21:35:08.259Z,6.57
2018-11-10T21:37:36.767Z,6.40
2018-11-10T21:40:07.268Z,5.93
2018-11-10T21:42:35.402Z,6.60
2018-11-10T21:45:03.574Z,7.45
2018-11-10T21:47:31.720Z,6.40
2018-11-10T21:49:59.844Z,7.03
2018-11-10T21:52:27.966Z,6.40
2018-11-10T21:54:56.150Z,7.97
2018-11-10T21:57:24.315Z,6.63
2018-11-10T21:59:52.441Z,7.53
2018-11-10T22:02:20.609Z,7.27
2018-11-10T22:04:48.712Z,7.20
2018-11-10T22:07:16.835Z,8.17
2018-11-10T22:09:45.014Z,7.10
2018-11-10T22:12:13.127Z,7.93
2018-11-10T22:14:41.280Z,8.27
2018-11-10T22:17:09.394Z,8.83
2018-11-10T22:19:37.518Z,7.50
2018-11-10T22:22:05.650Z,7.43
2018-11-10T22:24:33.814Z,7.90
2018-11-10T22:27:01.939Z,7.80
2018-11-10T22:29:30.034Z,8.40
2018-11-10T22:31:58.166Z,8.70
2018-11-10T22:34:26.271Z,7.77
2018-11-10T22:36:54.374Z,8.10
2018-11-10T22:39:22.476Z,7.95
2018-11-10T22:41:50.582Z,8.13
2018-11-10T22:44:18.675Z,8.37
2018-11-10T22:46:46.818Z,8.45
2018-11-10T22:49:14.914Z,7.33
2018-11-10T22:51:43.020Z,6.93
2018-11-10T22:54:11.174Z,7.10
2018-11-10T22:56:39.342Z,6.53
2018-11-10T22:59:07.398Z,6.43
2018-11-10T23:01:35.544Z,6.90
2018-11-10T23:04:03.643Z,6.43
2018-11-10T23:06:31.774Z,6.83
2018-11-10T23:08:59.871Z,6.63
2018-11-10T23:11:27.979Z,5.97
2018-11-10T23:13:56.155Z,6.90
2018-11-10T23:16:24.294Z,9.50
2018-11-10T23:18:52.435Z,7.33
2018-11-10T23:21:20.594Z,6.77
2018-11-10T23:23:48.719Z,8.17
2018-11-10T23:26:16.873Z,7.77
2018-11-10T23:28:45.007Z,9.57
2018-11-10T23:31:13.131Z,8.37
2018-11-10T23:33:41.267Z,8.63
2018-11-10T23:36:09.395Z,9.17
2018-11-10T23:38:37.517Z,9.00
2018-11-10T23:41:05.984Z,8.40
2018-11-10T23:43:34.158Z,9.23
2018-11-10T23:46:02.325Z,12.10
2018-11-10T23:48:30.459Z,11.93
2018-11-10T23:50:58.578Z,11.50
2018-11-10T23:53:26.715Z,11.77
2018-11-10T23:55:54.930Z,7.87
2018-11-10T23:58:23.049Z,8.73
